createdAt,value
2023-04-11T00:00:36.062Z,18.50
2023-04-11T00:03:07.997Z,18.00
2023-04-11T00:05:38.534Z,18.75
2023-04-11T00:08:08.926Z,15.50
2023-04-11T00:10:40.115Z,18.75
2023-04-11T00:13:11.519Z,19.50
2023-04-11T00:15:42.604Z,20.25
2023-04-11T00:18:14.248Z,14.25
2023-04-11T00:20:44.722Z,17.75
2023-04-11T00:23:15.614Z,22.00
2023-04-11T00:25:46.666Z,22.25
2023-04-11T00:28:17.149Z,21.75
2023-04-11T00:30:47.651Z,18.00
2023-04-11T00:33:18.849Z,21.00
2023-04-11T00:35:49.524Z,21.00
2023-04-11T00:38:20.891Z,21.50
2023-04-11T00:40:51.426Z,17.00
2023-04-11T00:43:31.164Z,22.75
2023-04-11T00:46:02.304Z,22.25
2023-04-11T00:48:33.148Z,17.50
2023-04-11T00:51:04.354Z,24.00
2023-04-11T00:53:37.810Z,25.00
2023-04-11T00:56:10.256Z,22.25
2023-04-11T00:58:42.931Z,21.75
2023-04-11T01:01:16.135Z,20.25
2023-04-11T01:03:48.067Z,19.25
2023-04-11T01:06:26.788Z,25.00
2023-04-11T01:08:59.316Z,22.25
2023-04-11T01:11:31.564Z,21.00
2023-04-11T01:14:07.622Z,22.00
2023-04-11T01:16:38.932Z,21.75
2023-04-11T01:19:09.834Z,23.25
2023-04-11T01:21:41.913Z,22.50
2023-04-11T01:24:12.506Z,16.00
2023-04-11T01:26:43.033Z,19.50
2023-04-11T01:29:13.430Z,23.75
2023-04-11T01:31:44.175Z,20.50
2023-04-11T01:34:15.930Z,21.25
2023-04-11T01:36:46.533Z,19.00
2023-04-11T01:39:18.289Z,17.25
2023-04-11T01:41:49.292Z,21.75
2023-04-11T01:44:24.313Z,20.50
2023-04-11T01:46:54.916Z,18.75
2023-04-11T01:49:26.505Z,21.50
2023-04-11T01:51:57.092Z,19.25
2023-04-11T01:54:27.528Z,21.75
2023-04-11T01:56:58.474Z,21.25
2023-04-11T01:59:28.988Z,21.75
2023-04-11T02:02:00.149Z,22.00
2023-04-11T02:04:30.848Z,22.25
2023-04-11T02:07:04.124Z,21.50
2023-04-11T02:09:37.860Z,23.00
2023-04-11T02:12:08.546Z,20.75
2023-04-11T02:14:44.412Z,22.25
2023-04-11T02:17:16.732Z,17.50
2023-04-11T02:19:48.072Z,18.00
2023-04-11T02:22:18.703Z,12.50
2023-04-11T02:24:50.167Z,18.50
2023-04-11T02:27:20.531Z,18.00
2023-04-11T02:29:51.735Z,17.50
2023-04-11T02:32:22.321Z,17.50
2023-04-11T02:34:53.026Z,17.00
2023-04-11T02:37:23.417Z,11.00
2023-04-11T02:39:55.171Z,17.75
2023-04-11T02:42:25.806Z,17.75
2023-04-11T02:44:56.929Z,17.25
2023-04-11T02:47:27.700Z,20.00
2023-04-11T02:49:58.793Z,19.75
2023-04-11T02:52:29.506Z,19.75
2023-04-11T02:55:01.649Z,23.00
2023-04-11T02:57:32.793Z,19.00
2023-04-11T03:00:03.702Z,13.25
2023-04-11T03:02:35.062Z,16.75
2023-04-11T03:05:10.320Z,13.50
2023-04-11T03:07:40.822Z,16.50
2023-04-11T03:10:14.675Z,16.50
2023-04-11T03:12:48.094Z,9.50
2023-04-11T03:15:18.959Z,14.75
2023-04-11T03:17:50.711Z,18.00
2023-04-11T03:20:21.514Z,18.25
2023-04-11T03:22:52.107Z,16.25
2023-04-11T03:25:22.837Z,14.50
2023-04-11T03:27:54.321Z,17.00
2023-04-11T03:30:25.171Z,17.00
2023-04-11T03:32:57.052Z,18.25
2023-04-11T03:35:28.306Z,15.25
2023-04-11T03:37:59.958Z,16.75
2023-04-11T03:40:30.775Z,18.50
2023-04-11T03:43:04.424Z,15.50
2023-04-11T03:45:34.684Z,16.00
2023-04-11T03:48:06.364Z,11.25
2023-04-11T03:50:37.733Z,13.75
2023-04-11T03:53:08.194Z,14.75
2023-04-11T03:55:39.800Z,15.25
2023-04-11T03:58:10.332Z,14.00
2023-04-11T04:00:41.389Z,17.00
2023-04-11T04:03:13.277Z,16.00
2023-04-11T04:05:43.990Z,16.25
2023-04-11T04:08:18.373Z,14.75
2023-04-11T04:10:50.292Z,15.00
2023-04-11T04:13:22.027Z,14.50
2023-04-11T04:15:53.690Z,14.00
2023-04-11T04:24:22.809Z,11.00
2023-04-11T04:27:13.758Z,9.50
2023-04-11T04:30:09.168Z,11.75
2023-04-11T04:32:45.015Z,8.50
2023-04-11T04:35:16.262Z,12.50
2023-04-11T04:37:47.405Z,11.50
2023-04-11T04:40:19.433Z,12.00
2023-04-11T04:42:50.829Z,16.50
2023-04-11T04:45:22.093Z,11.00
2023-04-11T04:47:52.615Z,10.25
2023-04-11T04:50:22.996Z,14.25
2023-04-11T04:52:53.613Z,14.25
2023-04-11T04:55:25.781Z,12.50
2023-04-11T04:57:56.354Z,13.00
2023-04-11T05:00:26.881Z,11.00
2023-04-11T05:02:58.803Z,11.75
2023-04-11T05:05:32.526Z,12.25
2023-04-11T05:08:06.764Z,9.00
2023-04-11T05:10:38.496Z,13.00
2023-04-11T05:13:10.103Z,9.00
2023-04-11T05:15:40.933Z,11.00
2023-04-11T05:18:12.030Z,7.75
2023-04-11T05:20:43.095Z,13.00
2023-04-11T05:23:13.620Z,9.25
2023-04-11T05:25:44.063Z,13.25
2023-04-11T05:28:14.626Z,11.25
2023-04-11T05:30:47.230Z,10.50
2023-04-11T05:33:19.471Z,12.00
2023-04-11T05:35:53.110Z,11.00
2023-04-11T05:38:24.385Z,13.25
2023-04-11T05:41:15.826Z,9.50
2023-04-11T05:43:49.517Z,10.00
2023-04-11T05:46:24.994Z,10.75
2023-04-11T05:48:59.684Z,14.50
2023-04-11T05:51:34.669Z,13.00
2023-04-11T05:54:05.350Z,12.75
2023-04-11T05:56:35.827Z,9.25
2023-04-11T05:59:15.733Z,13.00
2023-04-11T06:01:48.974Z,14.00
2023-04-11T06:04:27.772Z,13.00
2023-04-11T06:07:19.668Z,12.75
2023-04-11T06:10:08.457Z,6.50
2023-04-11T06:16:29.459Z,14.75
2023-04-11T06:26:57.606Z,10.25
2023-04-11T06:38:57.308Z,7.75
2023-04-11T06:41:31.693Z,9.25
2023-04-11T06:44:05.173Z,11.25
2023-04-11T06:46:42.839Z,8.00
2023-04-11T06:49:22.888Z,7.50
2023-04-11T06:52:01.749Z,10.00
2023-04-11T06:54:35.824Z,10.00
2023-04-11T06:57:12.156Z,13.00
2023-04-11T06:59:46.101Z,10.00
2023-04-11T07:02:48.308Z,12.75
2023-04-11T07:08:31.641Z,11.50
2023-04-11T07:10:58.638Z,12.50
2023-04-11T07:16:32.115Z,10.25
2023-04-11T07:19:13.130Z,8.50
2023-04-11T07:22:15.876Z,11.50
2023-04-11T07:24:43.004Z,11.00
2023-04-11T07:27:18.636Z,10.75
2023-04-11T07:29:56.773Z,10.50
2023-04-11T07:32:44.065Z,7.00
2023-04-11T07:35:19.629Z,12.75
2023-04-11T07:37:51.945Z,9.50
2023-04-11T07:40:22.430Z,9.75
2023-04-11T07:42:54.453Z,8.50
2023-04-11T07:45:29.062Z,9.25
2023-04-11T07:48:18.488Z,8.25
2023-04-11T07:50:49.208Z,10.50
2023-04-11T07:53:21.838Z,12.25
2023-04-11T07:55:55.299Z,9.50
2023-04-11T07:58:26.532Z,9.00
2023-04-11T08:00:58.396Z,8.75
2023-04-11T08:03:30.445Z,9.50
2023-04-11T08:06:01.244Z,9.50
2023-04-11T08:08:32.562Z,10.00
2023-04-11T08:11:03.385Z,9.75
2023-04-11T08:13:33.855Z,7.75
2023-04-11T08:16:07.301Z,7.75
2023-04-11T08:18:43.807Z,7.75
2023-04-11T08:21:14.501Z,10.00
2023-04-11T08:23:45.152Z,7.75
2023-04-11T08:26:15.560Z,8.25
2023-04-11T08:28:45.912Z,6.00
2023-04-11T08:31:16.521Z,8.50
2023-04-11T08:34:03.863Z,8.00
2023-04-11T08:36:57.117Z,7.00
2023-04-11T08:42:58.773Z,8.75
2023-04-11T08:48:56.071Z,7.00
2023-04-11T08:51:27.993Z,7.75
2023-04-11T08:54:03.056Z,11.50
2023-04-11T08:56:37.100Z,9.00
2023-04-11T08:59:08.057Z,8.00
2023-04-11T09:01:39.251Z,8.75
2023-04-11T09:04:10.363Z,10.00
2023-04-11T09:06:45.372Z,10.00
2023-04-11T09:09:20.445Z,7.50
2023-04-11T09:11:55.065Z,11.50
2023-04-11T09:14:27.399Z,10.25
2023-04-11T09:17:00.788Z,8.00
2023-04-11T09:19:34.368Z,9.00
2023-04-11T09:22:05.374Z,11.00
2023-04-11T09:24:37.520Z,11.00
2023-04-11T09:27:15.773Z,9.50
2023-04-11T09:29:50.431Z,5.75
2023-04-11T09:32:48.444Z,9.75
2023-04-11T09:35:21.124Z,9.00
2023-04-11T09:38:00.404Z,11.75
2023-04-11T09:40:33.091Z,8.75
2023-04-11T09:43:09.220Z,10.50
2023-04-11T09:45:53.653Z,10.00
2023-04-11T09:48:14.434Z,10.00
2023-04-11T09:50:49.333Z,11.00
2023-04-11T09:53:21.668Z,9.50
2023-04-11T09:55:54.316Z,6.00
2023-04-11T09:58:25.199Z,8.00
2023-04-11T10:00:57.209Z,9.60
2023-04-11T10:03:34.636Z,7.00
2023-04-11T10:06:10.954Z,1.00
2023-04-11T10:08:43.316Z,10.00
2023-04-11T10:11:15.100Z,10.00
2023-04-11T10:13:47.665Z,10.20
2023-04-11T10:16:20.437Z,9.80
2023-04-11T10:18:56.500Z,7.80
2023-04-11T10:21:33.672Z,10.20
2023-04-11T10:24:17.134Z,11.00
2023-04-11T10:26:56.461Z,8.20
2023-04-11T10:29:33.143Z,9.20
2023-04-11T10:32:19.912Z,9.80
2023-04-11T10:34:56.159Z,9.80
2023-04-11T10:37:36.801Z,12.00
2023-04-11T10:40:09.115Z,9.00
2023-04-11T10:42:44.660Z,5.40
2023-04-11T10:45:30.532Z,7.25
2023-04-11T10:48:09.950Z,7.00
2023-04-11T10:50:48.278Z,10.40
2023-04-11T10:53:37.299Z,10.80
2023-04-11T10:56:09.405Z,8.80
2023-04-11T10:58:40.389Z,12.50
2023-04-11T11:01:32.316Z,10.00
2023-04-11T11:03:57.210Z,12.00
2023-04-11T11:06:46.263Z,11.50
2023-04-11T11:09:23.036Z,12.50
2023-04-11T11:12:19.028Z,9.50
2023-04-11T11:14:49.595Z,8.75
2023-04-11T11:17:20.800Z,12.00
2023-04-11T11:19:51.426Z,11.40
2023-04-11T11:22:22.382Z,10.25
2023-04-11T11:24:54.614Z,10.20
2023-04-11T11:27:25.909Z,12.00
2023-04-11T11:33:03.988Z,12.60
2023-04-11T11:38:53.285Z,9.00
2023-04-11T11:41:24.552Z,9.40
2023-04-11T11:43:55.477Z,10.00
2023-04-11T11:46:28.343Z,9.40
2023-04-11T11:49:02.506Z,7.00
2023-04-11T11:51:50.413Z,7.50
2023-04-11T11:54:27.613Z,8.00
2023-04-11T11:57:07.884Z,10.80
2023-04-11T11:59:38.916Z,12.75
2023-04-11T12:02:09.690Z,11.75
2023-04-11T12:04:40.978Z,9.00
2023-04-11T12:07:13.681Z,10.25
2023-04-11T12:09:47.300Z,10.75
2023-04-11T12:12:18.326Z,9.75
2023-04-11T12:14:56.592Z,9.25
2023-04-11T12:17:30.108Z,8.75
2023-04-11T12:20:07.630Z,10.50
2023-04-11T12:22:39.005Z,11.25
2023-04-11T12:25:12.387Z,11.00
2023-04-11T12:27:47.519Z,9.00
2023-04-11T12:30:18.730Z,11.75
2023-04-11T12:32:50.061Z,7.00
2023-04-11T12:35:23.671Z,10.00
2023-04-11T12:37:57.038Z,10.00
2023-04-11T12:40:28.591Z,6.25
2023-04-11T12:43:00.490Z,9.50
2023-04-11T12:45:31.668Z,9.50
2023-04-11T12:48:02.963Z,10.50
2023-04-11T12:50:34.138Z,8.50
2023-04-11T12:53:05.061Z,9.25
2023-04-11T12:55:38.243Z,9.00
2023-04-11T12:58:10.068Z,9.00
2023-04-11T13:00:40.650Z,12.00
2023-04-11T13:03:12.067Z,12.00
2023-04-11T13:05:44.163Z,8.75
2023-04-11T13:08:14.866Z,12.00
2023-04-11T13:10:45.240Z,12.50
2023-04-11T13:13:18.340Z,8.25
2023-04-11T13:15:48.629Z,12.25
2023-04-11T13:18:19.504Z,8.75
2023-04-11T13:20:50.630Z,12.50
2023-04-11T13:23:25.072Z,13.50
2023-04-11T13:25:56.157Z,13.00
2023-04-11T13:28:29.173Z,13.00
2023-04-11T13:30:59.740Z,11.00
2023-04-11T13:33:31.635Z,11.75
2023-04-11T13:36:03.189Z,7.50
2023-04-11T13:38:34.218Z,9.00
2023-04-11T13:41:08.183Z,10.50
2023-04-11T13:43:39.447Z,10.75
2023-04-11T13:46:13.025Z,11.00
2023-04-11T13:48:45.625Z,11.00
2023-04-11T13:51:17.048Z,13.00
2023-04-11T13:53:50.986Z,13.50
2023-04-11T13:56:22.067Z,12.00
2023-04-11T13:58:53.090Z,11.50
2023-04-11T14:01:26.939Z,13.25
2023-04-11T14:03:58.198Z,13.00
2023-04-11T14:06:29.853Z,10.25
2023-04-11T14:09:08.314Z,11.25
2023-04-11T14:11:57.679Z,12.50
2023-04-11T14:14:31.194Z,12.25
2023-04-11T14:17:05.283Z,10.00
2023-04-11T14:19:36.666Z,9.50
2023-04-11T14:22:09.871Z,10.75
2023-04-11T14:24:42.107Z,12.75
2023-04-11T14:27:14.963Z,9.00
2023-04-11T14:29:49.240Z,9.75
2023-04-11T14:32:23.349Z,10.00
2023-04-11T14:34:54.317Z,12.25
2023-04-11T14:37:26.088Z,10.25
2023-04-11T14:40:06.580Z,12.25
2023-04-11T14:42:41.467Z,13.75
2023-04-11T14:45:18.783Z,10.00
2023-04-11T14:47:51.103Z,14.25
2023-04-11T14:50:22.355Z,13.00
2023-04-11T14:52:55.813Z,12.00
2023-04-11T14:55:27.912Z,14.75
2023-04-11T14:57:59.322Z,13.00
2023-04-11T15:00:31.328Z,12.00
2023-04-11T15:03:02.699Z,11.25
2023-04-11T15:05:39.986Z,13.50
2023-04-11T15:08:14.628Z,11.50
2023-04-11T15:10:49.193Z,14.00
2023-04-11T15:13:21.846Z,13.00
2023-04-11T15:15:53.555Z,9.25
2023-04-11T15:18:35.364Z,13.00
2023-04-11T15:21:13.443Z,9.00
2023-04-11T15:23:46.076Z,12.50
2023-04-11T15:26:20.420Z,10.50
2023-04-11T15:28:58.070Z,10.50
2023-04-11T15:31:31.752Z,13.25
2023-04-11T15:34:05.290Z,12.50
2023-04-11T15:36:38.269Z,11.75
2023-04-11T15:39:11.929Z,11.75
2023-04-11T15:41:44.465Z,10.75
2023-04-11T15:44:17.927Z,9.25
2023-04-11T15:46:50.152Z,12.25
2023-04-11T15:49:20.817Z,11.50
2023-04-11T15:51:53.936Z,12.25
2023-04-11T15:54:24.468Z,15.00
2023-04-11T15:56:55.031Z,14.75
2023-04-11T15:59:25.622Z,13.50
2023-04-11T16:01:56.682Z,14.75
2023-04-11T16:04:27.584Z,14.00
2023-04-11T16:07:03.489Z,14.75
2023-04-11T16:09:36.155Z,15.75
2023-04-11T16:12:07.923Z,5.50
2023-04-11T16:14:38.715Z,14.75
2023-04-11T16:17:11.278Z,12.50
2023-04-11T16:19:42.655Z,14.50
2023-04-11T16:22:13.295Z,15.50
2023-04-11T16:24:47.558Z,15.00
2023-04-11T16:27:18.569Z,15.75
2023-04-11T16:29:55.669Z,14.50
2023-04-11T16:32:28.058Z,12.25
2023-04-11T16:35:00.401Z,14.00
2023-04-11T16:37:33.098Z,9.50
2023-04-11T16:40:08.412Z,13.25
2023-04-11T16:42:43.962Z,9.00
2023-04-11T16:45:20.634Z,13.00
2023-04-11T16:47:52.060Z,10.50
2023-04-11T16:50:25.619Z,9.00
2023-04-11T16:52:56.285Z,11.25
2023-04-11T16:55:30.939Z,11.25
2023-04-11T16:58:04.672Z,12.00
2023-04-11T17:03:45.650Z,13.00
2023-04-11T17:06:19.543Z,11.75
2023-04-11T17:11:55.642Z,14.50
2023-04-11T17:14:27.180Z,15.00
2023-04-11T17:19:40.479Z,14.50
2023-04-11T17:22:13.542Z,15.50
2023-04-11T17:24:53.681Z,15.50
2023-04-11T17:30:34.994Z,16.50
2023-04-11T17:33:11.130Z,15.75
2023-04-11T17:38:52.107Z,17.25
2023-04-11T17:41:27.841Z,18.00
2023-04-11T17:44:03.673Z,21.25
2023-04-11T17:49:48.113Z,17.50
2023-04-11T17:52:29.591Z,15.00
2023-04-11T17:58:36.966Z,27.25
